Latest Weather Observations for Amberley

IDQ60801

Issued at 3:02 pm EST Tuesday 7 July 2015 (issued every 30 minutes, with the page automatically refreshed every 10 minutes)

About weather observations | Map of weather stations | Latest weather observations for QLD | Other Formats
Station Details ID: 040004 Name: AMBERLEY AMO Lat: -27.63 Lon: 152.71 Height: 24.2 m
Data from the previous 72 hours. | See also: Recent months at Amberley
Date/Time
EST
Temp
°C
App
Temp
°C
Dew
Point
Rel
Hum
%
Delta-T
°C
Wind Press
QNH
hPa
Press
MSL
hPa
Rain
since 9 am
mm
Dir
 
Spd
km/h
Gust
km/h
Spd
kts
Gust
kts
07/02:30pm 22.4 18.4 -2.6 18 10.7 SW 9 17 5 9 1016.2 - 0.0
07/02:00pm 22.2 18.8 -2.1 19 10.5 ENE 6 9 3 5 1016.3 - 0.0
07/01:30pm 21.8 18.1 -3.1 18 10.5 SSE 7 17 4 9 1016.4 - 0.0
07/01:00pm 21.8 17.2 -1.3 21 10.1 WSW 13 17 7 9 1016.5 - 0.0
07/12:30pm 21.1 16.8 -1.6 21 9.8 W 11 17 6 9 1016.8 - 0.0
07/12:00pm 20.5 16.6 -1.2 23 9.4 NE 9 19 5 10 1017.3 1017.3 0.0
07/11:30am 20.0 17.3 2.6 31 8.1 N 6 11 3 6 1017.8 - 0.0
07/10:30am 18.4 15.6 3.4 37 7.0 WNW 7 13 4 7 1018.4 - 0.0
07/10:00am 17.5 14.8 3.8 40 6.4 N 7 15 4 8 1018.5 - 0.0
07/06:30am 3.0 1.4 2.7 98 0.1 CALM 0 0 0 0 1017.7 - 0.0
07/05:30am 3.7 2.2 3.2 97 0.2 CALM 0 0 0 0 1017.2 - 0.0
07/05:00am 4.3 2.9 3.8 97 0.2 CALM 0 0 0 0 1017.0 - 0.0
07/04:47am 4.4 3.1 3.9 97 0.2 CALM 0 0 0 0 1016.9 - 0.0
07/04:41am 4.4 3.1 3.9 97 0.2 CALM 0 0 0 0 1016.9 - 0.0
07/04:35am 4.2 2.8 3.5 95 0.3 CALM 0 0 0 0 1016.9 - 0.0
07/04:30am 4.1 2.7 3.6 97 0.2 CALM 0 0 0 0 1016.9 - 0.0
07/04:06am 5.8 4.3 4.9 94 0.4 SW 2 9 1 5 1016.7 - 0.0
07/04:00am 5.5 4.0 4.8 95 0.3 SSW 2 9 1 5 1016.7 - 0.0
07/03:30am 4.9 3.7 4.7 99 0.1 CALM 0 0 0 0 1016.7 - 0.0
07/03:25am 5.0 3.8 4.5 97 0.2 CALM 0 0 0 0 1016.8 - 0.0
07/03:00am 5.3 4.1 4.6 95 0.3 CALM 0 0 0 0 1016.9 1016.9 0.0
07/02:30am 6.1 3.3 5.2 94 0.4 SSW 9 11 5 6 1016.8 - 0.0
07/02:00am 6.5 4.7 5.4 93 0.5 SW 4 7 2 4 1016.8 - 0.0
07/01:30am 6.1 5.0 5.2 94 0.4 CALM 0 0 0 0 1016.7 - 0.0
07/01:00am 7.1 6.2 6.0 93 0.5 CALM 0 0 0 0 1017.0 - 0.0
07/12:30am 7.5 6.7 6.6 94 0.4 CALM 0 0 0 0 1016.8 - 0.0
 
Date/Time
EST
Temp
°C
App
Temp
°C
Dew
Point
Rel
Hum
%
Delta-T
°C
Wind Press
QNH
hPa
Press
MSL
hPa
Rain
since 9 am
mm
Dir
 
Spd
km/h
Gust
km/h
Spd
kts
Gust
kts
06/11:30pm 7.4 6.6 6.5 94 0.4 CALM 0 0 0 0 1016.8 - 0.0
06/11:00pm 8.1 7.4 6.8 91 0.6 CALM 0 0 0 0 1016.8 - 0.0
06/10:30pm 7.8 6.2 6.5 91 0.6 S 4 7 2 4 1016.8 - 0.0
06/10:00pm 7.7 6.8 6.2 90 0.7 CALM 0 0 0 0 1016.8 - 0.0
06/09:30pm 10.6 8.8 7.2 79 1.6 SSW 6 7 3 4 1016.6 - 0.0
06/09:00pm 9.4 8.8 7.3 87 1.0 CALM 0 7 0 4 1016.2 1016.2 0.0
06/08:30pm 10.6 10.1 7.7 82 1.4 CALM 0 0 0 0 1016.1 - 0.0
06/08:00pm 11.9 11.4 7.8 76 2.0 CALM 0 0 0 0 1016.1 - 0.0
06/07:30pm 11.6 11.0 7.5 76 2.0 CALM 0 6 0 3 1016.0 - 0.0
06/07:00pm 13.6 11.8 7.0 64 3.2 NW 6 7 3 4 1015.7 - 0.0
06/06:30pm 16.1 14.2 6.5 53 4.7 NW 6 7 3 4 1015.5 - 0.0
06/05:30pm 17.1 14.5 6.0 48 5.4 WNW 9 11 5 6 1015.0 - 0.0
06/05:00pm 19.1 15.7 5.7 41 6.6 WNW 13 13 7 7 1014.8 - 0.0
06/04:30pm 22.4 18.0 4.5 31 8.8 WNW 17 24 9 13 1014.8 - 0.0
06/04:00pm 23.4 19.4 4.7 29 9.3 W 15 20 8 11 1014.6 - 0.0
06/03:30pm 23.4 19.0 5.0 30 9.2 W 17 26 9 14 1014.7 - 0.0
06/03:00pm 24.1 19.2 4.9 29 9.6 W 20 30 11 16 1015.0 1015.0 0.0
06/02:30pm 24.3 17.7 4.0 26 10.0 NW 28 41 15 22 1015.0 - 0.0
06/02:00pm 23.7 17.9 4.5 28 9.5 W 24 37 13 20 1015.4 - 0.0
06/01:30pm 23.2 19.6 8.3 38 7.9 NW 17 26 9 14 1015.6 - 0.0
06/01:00pm 22.8 18.7 7.7 38 7.9 NNW 19 30 10 16 1016.0 - 0.0
06/12:30pm 22.2 18.7 8.6 41 7.2 N 17 26 9 14 1016.9 - 0.0
06/12:00pm 21.4 17.8 8.5 43 6.8 NNW 17 26 9 14 1017.4 1017.4 0.0
06/11:30am 21.2 17.5 7.9 42 6.9 NNW 17 22 9 12 1018.1 - 0.0
06/11:00am 20.9 16.7 8.2 44 6.6 NW 20 28 11 15 1018.6 - 0.0
06/10:30am 19.4 17.6 9.4 52 5.3 WNW 9 15 5 8 1019.0 - 0.0
06/10:00am 16.3 14.5 9.6 64 3.5 W 9 13 5 7 1019.5 - 0.0
06/09:30am 13.6 12.2 8.8 73 2.4 SSW 6 9 3 5 1019.8 - 0.0
06/09:00am 11.0 9.7 9.2 89 0.9 SSW 6 7 3 4 1020.2 1020.3 0.0
06/08:51am 11.1 9.8 9.1 87 1.0 SSW 6 7 3 4 1020.2 - 0.0
06/08:30am 9.6 7.8 7.3 85 1.1 SSW 6 7 3 4 1020.1 - 0.0
06/08:00am 7.1 4.4 5.8 91 0.6 SSW 9 11 5 6 1020.2 - 0.0
06/07:30am 4.6 2.1 3.6 93 0.4 SSW 6 7 3 4 1020.0 - 0.0
06/07:00am 3.2 0.5 2.7 96 0.2 SSW 6 7 3 4 1019.8 - 0.0
06/06:30am 3.2 1.6 2.7 96 0.2 CALM 0 0 0 0 1019.7 - 0.0
06/06:00am 3.5 2.0 3.0 97 0.2 CALM 0 0 0 0 1019.7 1019.8 0.0
06/05:30am 4.1 2.7 3.6 97 0.2 CALM 0 0 0 0 1019.6 - 0.0
06/05:26am 3.9 2.5 3.4 97 0.2 CALM 0 0 0 0 1019.6 - 0.0
06/05:08am 3.9 2.5 3.7 99 0.1 CALM 0 0 0 0 1019.6 - 0.0
06/05:00am 3.9 2.4 3.2 95 0.3 CALM 0 0 0 0 1019.5 - 0.0
06/04:30am 4.1 2.7 3.6 97 0.2 CALM 0 0 0 0 1019.7 - 0.0
06/04:00am 4.4 3.1 3.9 97 0.2 CALM 0 0 0 0 1019.6 - 0.0
06/03:30am 4.8 3.6 4.6 99 0.1 CALM 0 0 0 0 1019.6 - 0.0
06/03:00am 4.9 3.7 4.4 97 0.2 CALM 0 0 0 0 1019.6 1019.6 0.0
06/02:31am 5.4 4.2 4.7 95 0.3 CALM 0 0 0 0 1019.8 - 0.0
06/02:30am 5.4 4.2 4.7 95 0.3 CALM 0 0 0 0 1019.8 - 0.0
06/02:00am 5.6 4.1 5.1 97 0.2 SSW 2 6 1 3 1020.0 - 0.0
06/01:30am 6.1 3.8 5.9 99 0.1 SW 7 11 4 6 1020.2 - 0.0
06/01:00am 6.7 5.7 5.8 94 0.4 CALM 0 0 0 0 1020.4 - 0.0
06/12:30am 6.8 5.9 5.9 94 0.4 CALM 0 0 0 0 1020.5 - 0.0
06/12:00am 7.3 6.5 6.6 95 0.3 CALM 0 0 0 0 1020.5 1020.6 0.0
 
Date/Time
EST
Temp
°C
App
Temp
°C
Dew
Point
Rel
Hum
%
Delta-T
°C
Wind Press
QNH
hPa
Press
MSL
hPa
Rain
since 9 am
mm
Dir
 
Spd
km/h
Gust
km/h
Spd
kts
Gust
kts
05/11:30pm 7.4 6.6 6.3 93 0.5 CALM 0 0 0 0 1020.6 - 0.0
05/11:00pm 7.8 7.0 6.5 91 0.6 CALM 0 0 0 0 1020.5 - 0.0
05/10:30pm 8.8 8.1 7.1 89 0.8 CALM 0 0 0 0 1020.7 - 0.0
05/10:00pm 8.9 7.9 7.2 89 0.8 SW 2 7 1 4 1020.9 - 0.0
05/09:30pm 9.4 7.6 7.3 87 1.0 S 6 9 3 5 1020.8 - 0.0
05/09:00pm 9.4 8.7 7.1 85 1.1 CALM 0 6 0 3 1020.7 1020.8 0.0
05/08:30pm 9.8 8.3 7.0 83 1.3 SE 4 7 2 4 1020.3 - 0.0
05/08:00pm 11.1 10.3 8.0 81 1.5 NE 2 7 1 4 1020.1 - 0.0
05/07:30pm 11.0 8.8 7.7 80 1.6 E 9 11 5 6 1019.9 - 0.0
05/07:00pm 14.0 12.3 8.2 68 2.9 NE 7 9 4 5 1019.7 - 0.0
05/06:30pm 13.7 12.0 8.5 71 2.6 ENE 7 7 4 4 1019.7 - 0.0
05/06:00pm 16.5 15.5 7.5 55 4.5 N 2 7 1 4 1019.5 1019.5 0.0
05/05:30pm 16.9 14.9 7.3 53 4.8 N 7 11 4 6 1019.5 - 0.0
05/05:00pm 18.0 15.9 6.7 47 5.6 N 7 11 4 6 1019.3 - 0.0
05/04:30pm 19.8 16.9 6.7 42 6.6 N 11 15 6 8 1019.2 - 0.0
05/04:00pm 21.2 17.8 6.0 37 7.6 N 13 19 7 10 1019.0 - 0.0
05/03:30pm 21.6 18.2 5.8 35 7.9 N 13 19 7 10 1019.0 - 0.0
05/03:00pm 22.3 18.3 6.6 36 8.0 NNW 17 28 9 15 1019.2 1019.2 0.0
05/02:30pm 22.5 18.4 6.1 34 8.3 NNW 17 28 9 15 1019.2 - 0.0
05/02:00pm 22.1 17.7 6.6 36 7.9 NNW 19 26 10 14 1019.4 - 0.0
05/01:30pm 21.8 17.9 5.5 34 8.1 NW 15 26 8 14 1019.7 - 0.0
05/01:00pm 20.6 15.9 6.2 39 7.2 NW 20 26 11 14 1020.2 - 0.0
05/12:30pm 20.6 18.2 8.6 46 6.3 N 11 22 6 12 1020.7 - 0.0
05/12:00pm 20.7 18.9 9.6 49 5.9 NW 9 15 5 8 1021.3 1021.4 0.0
05/11:30am 19.9 17.5 10.0 53 5.3 WNW 13 17 7 9 1022.0 - 0.0
05/11:00am 19.5 18.4 10.8 57 4.7 NNW 7 13 4 7 1022.5 - 0.0
05/10:30am 17.9 16.4 10.4 61 4.0 NW 9 15 5 8 1023.0 - 0.0
05/10:00am 16.3 15.4 10.8 70 2.9 WNW 6 9 3 5 1023.2 - 0.0
05/09:30am 14.7 13.8 10.7 77 2.1 NNW 6 9 3 5 1023.4 - 0.0
05/09:00am 12.3 11.2 9.9 85 1.2 W 6 9 3 5 1023.4 1023.5 0.0
05/08:30am 10.4 10.2 9.0 91 0.7 CALM 0 0 0 0 1023.2 - 0.0
05/08:00am 8.2 7.6 7.3 94 0.4 CALM 0 4 0 2 1023.0 - 0.0
05/07:30am 6.7 5.9 6.3 97 0.2 CALM 0 0 0 0 1022.9 - 0.0
05/07:17am 5.9 4.9 5.4 97 0.2 CALM 0 0 0 0 1022.8 - 0.0
05/07:02am 5.1 3.9 4.6 97 0.2 CALM 0 0 0 0 1022.7 - 0.0
05/07:00am 5.1 3.9 4.6 97 0.2 CALM 0 0 0 0 1022.7 - 0.0
05/06:55am 5.1 4.0 4.9 99 0.1 CALM 0 0 0 0 1022.7 - 0.0
05/06:43am 5.4 4.3 4.9 97 0.2 CALM 0 0 0 0 1022.5 - 0.0
05/06:30am 5.1 3.9 4.4 95 0.3 CALM 0 0 0 0 1022.2 - 0.0
05/06:00am 5.2 4.0 4.7 97 0.2 CALM 0 0 0 0 1021.8 1021.9 0.0
05/05:49am 5.1 3.9 4.6 97 0.2 CALM 0 0 0 0 1021.8 - 0.0
05/05:30am 5.4 4.3 5.2 99 0.1 CALM 0 0 0 0 1021.6 - 0.0
05/05:23am 6.1 5.2 5.9 99 0.1 CALM 0 0 0 0 1021.5 - 0.0
05/05:22am 6.2 5.3 6.0 99 0.1 CALM 0 0 0 0 1021.6 - 0.0
05/05:14am 6.1 5.0 5.2 94 0.4 CALM 0 0 0 0 1021.5 - 0.0
05/05:00am 6.1 5.2 5.9 99 0.1 CALM 0 0 0 0 1021.3 - 0.0
05/04:45am 5.3 3.8 5.1 99 0.1 WNW 2 7 1 4 1021.3 - 0.0
05/04:43am 5.4 3.6 5.2 99 0.1 WNW 4 7 2 4 1021.3 - 0.0
05/04:36am 6.3 3.6 5.6 95 0.3 WNW 9 9 5 5 1021.2 - 0.0
05/04:30am 6.3 4.3 6.1 99 0.1 WNW 6 9 3 5 1021.2 - 0.0
05/04:15am 6.1 5.1 5.6 97 0.2 CALM 0 0 0 0 1021.2 - 0.0
05/04:00am 6.8 6.0 6.4 97 0.2 CALM 0 0 0 0 1021.3 - 0.0
05/03:56am 6.8 6.0 6.4 97 0.2 CALM 0 0 0 0 1021.3 - 0.0
05/03:30am 7.4 6.6 6.7 95 0.3 CALM 0 0 0 0 1021.4 - 0.0
05/03:00am 8.1 7.6 7.7 97 0.2 CALM 0 0 0 0 1021.5 1021.6 0.0
05/02:30am 8.6 8.1 8.0 96 0.3 CALM 0 0 0 0 1021.7 - 0.0
05/02:00am 8.7 6.6 8.1 96 0.3 NNW 9 9 5 5 1022.1 - 0.0
05/01:30am 8.4 7.9 7.8 96 0.3 CALM 0 9 0 5 1022.2 - 0.0
05/01:00am 8.4 7.9 7.8 96 0.3 CALM 0 0 0 0 1022.2 - 0.0
05/12:30am 8.3 7.7 7.4 94 0.4 CALM 0 0 0 0 1022.3 - 0.0
05/12:00am 8.2 7.6 7.6 96 0.3 CALM 0 6 0 3 1022.4 1022.5 0.0
 
Date/Time
EST
Temp
°C
App
Temp
°C
Dew
Point
Rel
Hum
%
Delta-T
°C
Wind Press
QNH
hPa
Press
MSL
hPa
Rain
since 9 am
mm
Dir
 
Spd
km/h
Gust
km/h
Spd
kts
Gust
kts
04/11:30pm 7.6 5.8 7.2 97 0.2 NNW 6 7 3 4 1022.5 - 0.0
04/11:00pm 7.4 5.9 6.7 95 0.3 NNW 4 7 2 4 1022.4 - 0.0
04/10:38pm 7.9 7.3 7.5 97 0.2 CALM 0 0 0 0 1022.4 - 0.0
04/10:30pm 7.9 7.3 7.3 96 0.3 CALM 0 0 0 0 1022.5 - 0.0
04/10:08pm 7.3 6.6 7.1 99 0.1 CALM 0 0 0 0 1022.4 - 0.0
04/10:00pm 7.7 7.0 7.1 96 0.3 CALM 0 0 0 0 1022.3 - 0.0
04/09:53pm 8.6 8.2 8.2 97 0.2 CALM 0 0 0 0 1022.3 - 0.0
04/09:37pm 8.6 7.0 7.8 95 0.4 NNW 6 7 3 4 1022.3 - 0.0
04/09:30pm 8.8 7.0 8.0 95 0.4 NNW 7 7 4 4 1022.3 - 0.0
04/09:00pm 8.8 8.4 8.4 97 0.2 CALM 0 0 0 0 1022.3 1022.4 0.0
04/08:59pm 8.8 8.4 8.2 96 0.3 CALM 0 0 0 0 1022.2 - 0.0
04/08:30pm 9.4 9.0 8.2 92 0.6 CALM 0 0 0 0 1022.2 - 0.0
04/08:00pm 10.7 10.6 9.3 91 0.7 CALM 0 0 0 0 1021.9 - 0.0
04/07:30pm 10.3 9.4 9.1 92 0.6 N 4 11 2 6 1021.7 - 0.0
04/07:00pm 11.4 11.0 9.6 89 0.9 NNW 2 7 1 4 1021.2 - 0.0
04/06:30pm 12.8 12.4 9.9 82 1.5 N 2 9 1 5 1020.8 - 0.0
04/06:00pm 13.3 12.9 9.8 79 1.8 N 2 4 1 2 1020.4 1020.5 0.0
04/05:30pm 15.6 14.3 10.0 69 2.9 NNE 7 7 4 4 1020.2 - 0.0
04/05:00pm 17.3 15.8 9.2 59 4.2 N 7 9 4 5 1020.0 - 0.0
04/04:30pm 19.2 17.6 8.6 50 5.5 N 7 11 4 6 1020.1 - 0.0
04/04:00pm 20.2 18.2 8.5 47 6.1 N 9 13 5 7 1020.1 - 0.0
04/03:30pm 20.4 18.3 8.3 45 6.3 N 9 11 5 6 1020.4 - 0.0

Other Formats:

Comma delimited format used in spreadsheet applications
http://www.bom.gov.au/fwo/IDQ60801/IDQ60801.94568.axf

JavaScript Object Notation format (JSON) in row-major order
http://www.bom.gov.au/fwo/IDQ60801/IDQ60801.94568.json